Time;durP1;ratioP1;P1;durP2;ratioP2;P2;SDS_P1;SDS_P2;PMS_P1;PMS_P2;Temp;Humidity;BMP_temperature;BMP_pressure;BME280_temperature;BME280_humidity;BME280_pressure;Samples;Min_cycle;Max_cycle;Signal;HPM_P1;HPM_P2
2022/06/15 00:00:40;;;;;;;9.55;6.70;;;11.90;99.90;;;;;;5125657;27;20042;-72
2022/06/15 00:03:06;;;;;;;10.65;7.30;;;11.90;99.90;;;;;;5142008;27;20031;-72
2022/06/15 00:05:32;;;;;;;10.07;6.70;;;11.90;99.90;;;;;;5123249;27;20043;-72
2022/06/15 00:07:57;;;;;;;;;;;11.90;99.90;;;;;;5127418;27;20035;-72
2022/06/15 00:10:23;;;;;;;8.68;6.05;;;11.80;99.90;;;;;;5123470;27;20382;-72
2022/06/15 00:12:49;;;;;;;;;;;11.80;99.90;;;;;;5126491;27;20386;-72
2022/06/15 00:15:15;;;;;;;9.30;6.80;;;11.80;99.90;;;;;;5139939;27;20009;-72
2022/06/15 00:17:41;;;;;;;8.02;6.13;;;11.70;99.90;;;;;;5124103;27;20242;-72
2022/06/15 00:20:07;;;;;;;;;;;11.70;99.90;;;;;;5145721;27;20577;-72
2022/06/15 00:22:32;;;;;;;9.25;6.72;;;11.70;99.90;;;;;;5124704;27;19995;-72
2022/06/15 00:24:58;;;;;;;;;;;11.70;99.90;;;;;;5143006;27;20362;-72
2022/06/15 00:27:24;;;;;;;10.80;7.22;;;11.60;99.90;;;;;;5127139;27;19920;-72
2022/06/15 00:29:49;;;;;;;10.35;7.88;;;11.60;99.90;;;;;;5123803;27;20113;-72
2022/06/15 00:32:15;;;;;;;;;;;11.60;99.90;;;;;;5122147;27;20116;-71
2022/06/15 00:34:40;;;;;;;9.88;7.10;;;11.60;99.90;;;;;;5144125;27;19919;-71
2022/06/15 00:37:06;;;;;;;11.40;7.07;;;11.70;99.90;;;;;;5140478;27;20455;-72
2022/06/15 00:39:36;;;;;;;10.82;7.60;;;11.50;99.90;;;;;;5126237;27;20053;-72
2022/06/15 00:42:02;;;;;;;9.60;7.30;;;11.50;99.90;;;;;;5124787;27;20838;-72
2022/06/15 00:44:33;;;;;;;10.40;7.45;;;11.50;99.90;;;;;;5141915;27;20030;-72
2022/06/15 00:47:29;;;;;;;10.52;7.18;;;11.50;99.90;;;;;;5125568;27;20035;-71
2022/06/15 00:50:06;;;;;;;11.07;7.10;;;11.50;99.90;;;;;;5141596;27;20050;-72
2022/06/15 00:52:40;;;;;;;9.43;6.63;;;11.40;99.90;;;;;;5122549;27;20035;-72
2022/06/15 00:55:19;;;;;;;8.27;6.60;;;11.40;99.90;;;;;;5124294;27;20053;-72
2022/06/15 00:57:45;;;;;;;9.57;7.07;;;11.40;99.90;;;;;;5141062;27;20118;-72
2022/06/15 01:00:12;;;;;;;;;;;11.30;99.90;;;;;;5125050;27;20203;-72
2022/06/15 01:02:38;;;;;;;9.98;7.18;;;11.30;99.90;;;;;;5122072;27;19964;-72
2022/06/15 01:05:18;;;;;;;10.60;7.63;;;11.30;99.90;;;;;;5124905;27;20427;-72
2022/06/15 01:08:07;;;;;;;12.05;8.25;;;11.30;99.90;;;;;;5123047;27;20039;-72
2022/06/15 01:10:38;;;;;;;10.30;7.28;;;11.20;99.90;;;;;;5116275;27;20454;-72
2022/06/15 01:13:19;;;;;;;9.30;7.30;;;11.20;99.90;;;;;;5121798;28;20045;-72
2022/06/15 01:16:31;;;;;;;9.50;7.03;;;11.20;99.90;;;;;;5142182;27;20042;-72
2022/06/15 01:19:04;;;;;;;9.18;6.38;;;11.20;99.90;;;;;;5124188;27;20089;-72
2022/06/15 01:21:38;;;;;;;8.50;6.32;;;11.10;99.90;;;;;;5140405;27;20035;-72
2022/06/15 01:24:34;;;;;;;7.60;6.13;;;11.10;99.90;;;;;;5120805;27;20154;-72
2022/06/15 01:27:21;;;;;;;7.65;5.38;;;11.10;99.90;;;;;;5140142;27;20092;-72
2022/06/15 01:30:13;;;;;;;;;;;11.00;99.90;;;;;;5124194;27;20100;-72
2022/06/15 01:32:58;;;;;;;7.72;5.50;;;11.00;99.90;;;;;;5098851;27;19919;-72
2022/06/15 01:35:34;;;;;;;7.88;5.55;;;11.00;99.90;;;;;;5143235;27;20513;-72
2022/06/15 01:38:20;;;;;;;7.03;5.68;;;11.00;99.90;;;;;;5139731;27;20042;-72
2022/06/15 01:40:57;;;;;;;9.02;5.70;;;11.60;99.90;;;;;;5142213;27;20048;-72
2022/06/15 01:43:28;;;;;;;8.60;6.03;;;10.90;99.90;;;;;;5124784;27;20043;-72
2022/06/15 01:45:55;;;;;;;9.52;6.47;;;10.90;99.90;;;;;;5127786;27;20045;-73
2022/06/15 01:48:21;;;;;;;9.43;6.82;;;11.40;99.90;;;;;;5147436;27;20410;-72
2022/06/15 01:50:56;;;;;;;;;;;10.90;99.90;;;;;;5146508;27;20043;-72
2022/06/15 01:53:38;;;;;;;10.70;6.38;;;10.90;99.90;;;;;;5143158;27;20279;-72
2022/06/15 01:56:16;;;;;;;11.88;7.05;;;10.90;99.90;;;;;;5125347;27;20054;-72
2022/06/15 01:58:48;;;;;;;9.10;6.95;;;10.90;99.90;;;;;;5126716;27;20090;-72
2022/06/15 02:01:20;;;;;;;8.80;6.65;;;10.90;99.90;;;;;;5125677;27;20039;-71
2022/06/15 02:04:10;;;;;;;10.00;7.18;;;11.00;99.90;;;;;;5127724;27;20042;-72
2022/06/15 02:07:18;;;;;;;10.43;6.90;;;10.90;99.90;;;;;;5125816;27;20039;-73
2022/06/15 02:09:55;;;;;;;10.40;7.47;;;10.90;99.90;;;;;;5132933;27;20047;-72
2022/06/15 02:12:29;;;;;;;8.90;6.88;;;10.90;99.90;;;;;;5143427;27;20114;-71
2022/06/15 02:14:59;;;;;;;10.07;7.28;;;11.00;99.90;;;;;;5123947;27;20074;-71
2022/06/15 02:17:31;;;;;;;12.18;7.85;;;10.90;99.90;;;;;;5146796;27;20070;-71
2022/06/15 02:20:03;;;;;;;10.43;7.03;;;10.90;99.90;;;;;;5129003;27;20492;-71
2022/06/15 02:22:32;;;;;;;9.80;6.32;;;10.80;99.90;;;;;;5125008;27;20039;-71
2022/06/15 02:25:03;;;;;;;8.77;6.15;;;11.20;99.90;;;;;;5146195;27;20035;-72
2022/06/15 02:27:32;;;;;;;7.70;6.28;;;10.70;99.90;;;;;;5143321;27;20035;-72
2022/06/15 02:30:05;;;;;;;8.27;5.80;;;10.90;99.90;;;;;;5128776;27;20043;-72
2022/06/15 02:32:31;;;;;;;8.98;6.00;;;10.60;99.90;;;;;;5127220;27;20135;-71
2022/06/15 02:34:57;;;;;;;;;;;10.60;99.90;;;;;;5143455;27;20043;-71
2022/06/15 02:37:22;;;;;;;7.38;5.13;;;10.90;99.90;;;;;;5131450;27;20374;-72
2022/06/15 02:39:48;;;;;;;;;;;10.50;99.90;;;;;;5125029;27;20031;-72
2022/06/15 02:42:33;;;;;;;8.93;5.35;;;10.50;99.90;;;;;;5145360;27;19919;-72
2022/06/15 02:45:10;;;;;;;8.20;5.90;;;10.60;99.90;;;;;;5125915;27;20047;-72
2022/06/15 02:47:38;;;;;;;;;;;10.40;99.90;;;;;;5144473;27;20043;-71
2022/06/15 02:50:04;;;;;;;8.77;6.25;;;10.40;99.90;;;;;;5143755;27;20370;-72
2022/06/15 02:52:35;;;;;;;8.65;6.22;;;10.40;99.90;;;;;;5143237;27;20520;-71
2022/06/15 02:55:02;;;;;;;10.15;6.70;;;10.40;99.90;;;;;;5127093;27;20046;-72
2022/06/15 02:57:28;;;;;;;10.68;6.90;;;10.40;99.90;;;;;;5124534;27;20039;-72
2022/06/15 02:59:55;;;;;;;;;;;10.40;99.90;;;;;;5145904;27;20074;-72
2022/06/15 03:02:21;;;;;;;;;;;10.40;99.90;;;;;;5124767;27;20311;-72
2022/06/15 03:04:47;;;;;;;9.13;6.18;;;11.20;99.90;;;;;;5127035;27;19927;-72
2022/06/15 03:07:15;;;;;;;10.07;6.80;;;10.40;99.90;;;;;;5123340;27;20066;-72
2022/06/15 03:09:41;;;;;;;9.65;7.25;;;10.50;99.90;;;;;;5128322;27;20443;-72
2022/06/15 03:12:08;;;;;;;9.80;6.72;;;10.50;99.90;;;;;;5124234;27;20066;-72
2022/06/15 03:14:34;;;;;;;9.70;6.82;;;10.50;99.90;;;;;;5125850;27;20043;-72
2022/06/15 03:17:00;;;;;;;9.38;6.15;;;10.50;99.90;;;;;;5124431;27;20038;-72
2022/06/15 03:19:26;;;;;;;;;;;10.50;99.90;;;;;;5144255;27;20041;-72
2022/06/15 03:21:51;;;;;;;8.98;6.70;;;10.50;99.90;;;;;;5126073;27;19914;-72
2022/06/15 03:24:17;;;;;;;;;;;10.50;99.90;;;;;;5144977;27;20047;-72
2022/06/15 03:26:43;;;;;;;8.13;6.57;;;10.50;99.90;;;;;;5126795;27;20374;-72
2022/06/15 03:29:08;;;;;;;;;;;10.50;99.90;;;;;;5142168;27;20035;-72
2022/06/15 03:31:34;;;;;;;10.50;6.70;;;10.50;99.90;;;;;;5144688;27;20312;-72
2022/06/15 03:33:59;;;;;;;;;;;10.70;99.90;;;;;;5124800;27;20046;-72
2022/06/15 03:36:25;;;;;;;9.05;6.07;;;10.40;99.90;;;;;;5143604;27;19926;-72
2022/06/15 03:38:51;;;;;;;;;;;10.40;99.90;;;;;;5127436;27;20043;-72
2022/06/15 03:41:17;;;;;;;9.93;6.40;;;10.40;99.90;;;;;;5125708;27;19919;-72
2022/06/15 03:43:46;;;;;;;10.60;6.82;;;10.40;99.90;;;;;;5141876;27;20039;-72
2022/06/15 03:46:13;;;;;;;10.52;6.50;;;10.80;99.90;;;;;;5125354;27;20041;-70
2022/06/15 03:48:38;;;;;;;10.63;7.05;;;10.40;99.90;;;;;;5123078;27;20051;-71
2022/06/15 03:51:04;;;;;;;;;;;10.40;99.90;;;;;;5126327;27;20038;-69
2022/06/15 03:53:30;;;;;;;11.63;6.35;;;10.50;99.90;;;;;;5141047;27;19926;-70
2022/06/15 03:55:55;;;;;;;;;;;10.50;99.90;;;;;;5144396;27;20123;-70
2022/06/15 03:58:21;;;;;;;9.38;6.65;;;10.50;99.90;;;;;;5124531;27;19918;-69
2022/06/15 04:00:47;;;;;;;;;;;10.50;99.90;;;;;;5141998;27;20047;-70
2022/06/15 04:03:12;;;;;;;9.73;6.00;;;10.50;99.90;;;;;;5143585;27;19918;-70
2022/06/15 04:05:42;;;;;;;;;;;10.50;99.90;;;;;;5141343;27;20080;-69
2022/06/15 04:11:00;;;;;;;10.07;6.43;;;10.50;99.90;;;;;;5123056;27;20498;-68
2022/06/15 04:13:26;;;;;;;9.77;6.68;;;10.60;99.90;;;;;;5124346;27;20085;-68
2022/06/15 04:15:52;;;;;;;10.48;6.60;;;10.60;99.90;;;;;;5123538;27;20097;-68
2022/06/15 04:18:17;;;;;;;;;;;11.20;99.90;;;;;;5142557;27;20481;-69
2022/06/15 04:20:43;;;;;;;8.85;5.72;;;11.20;99.90;;;;;;5129190;27;19926;-68
2022/06/15 04:23:13;;;;;;;;;;;10.70;99.90;;;;;;5129035;27;20038;-69
2022/06/15 04:25:47;;;;;;;9.85;6.50;;;10.70;99.90;;;;;;5123011;27;19919;-69
2022/06/15 04:28:16;;;;;;;11.75;6.78;;;11.00;99.90;;;;;;5124888;27;20035;-69
2022/06/15 04:30:42;;;;;;;10.23;6.75;;;10.80;99.90;;;;;;5124913;27;20478;-68
2022/06/15 04:33:09;;;;;;;;;;;11.20;99.90;;;;;;5125120;27;20039;-69
2022/06/15 04:35:39;;;;;;;9.95;6.28;;;11.00;99.90;;;;;;5145143;27;20779;-69
2022/06/15 04:38:06;;;;;;;10.80;6.70;;;11.20;99.90;;;;;;5123844;27;20489;-68
2022/06/15 04:40:33;;;;;;;10.45;6.90;;;11.00;99.90;;;;;;5121254;27;20047;-69
2022/06/15 04:42:59;;;;;;;11.48;6.57;;;11.20;99.90;;;;;;5139481;27;20035;-69
2022/06/15 04:45:24;;;;;;;;;;;11.20;99.90;;;;;;5128831;27;20042;-68
2022/06/15 04:47:50;;;;;;;10.70;6.47;;;11.70;99.90;;;;;;5122440;27;19927;-69
2022/06/15 04:50:16;;;;;;;;;;;11.30;99.90;;;;;;5124276;27;20491;-68
2022/06/15 04:52:43;;;;;;;8.05;6.05;;;11.90;99.90;;;;;;5123628;27;19926;-68
2022/06/15 04:55:12;;;;;;;9.50;6.22;;;11.90;99.90;;;;;;5122093;27;20050;-71
2022/06/15 04:57:37;;;;;;;9.85;6.78;;;11.60;99.90;;;;;;5124144;27;20413;-69
2022/06/15 05:00:05;;;;;;;;;;;12.10;99.90;;;;;;5145024;27;20039;-69
2022/06/15 05:02:31;;;;;;;9.57;5.95;;;11.70;99.90;;;;;;5121610;27;20014;-69
2022/06/15 05:04:59;;;;;;;;;;;11.80;99.90;;;;;;5144339;27;20117;-69
2022/06/15 05:07:25;;;;;;;8.63;5.55;;;11.90;99.90;;;;;;5140308;27;19979;-71
2022/06/15 05:09:51;;;;;;;11.80;6.45;;;11.90;99.90;;;;;;5124193;27;20114;-70
2022/06/15 05:12:17;;;;;;;8.52;5.88;;;12.00;99.90;;;;;;5140084;27;20099;-71
2022/06/15 05:14:47;;;;;;;11.02;6.38;;;13.10;99.90;;;;;;5142630;27;20042;-71
2022/06/15 05:17:14;;;;;;;8.70;5.75;;;12.20;99.90;;;;;;5125997;27;20058;-71
2022/06/15 05:19:40;;;;;;;9.35;5.93;;;12.30;99.90;;;;;;5146662;27;20081;-69
2022/06/15 05:22:06;;;;;;;;;;;12.40;99.90;;;;;;5127883;27;20187;-73
2022/06/15 05:24:31;;;;;;;8.48;5.95;;;12.50;99.90;;;;;;5146681;27;19919;-71
2022/06/15 05:26:57;;;;;;;9.20;5.45;;;12.50;99.90;;;;;;5129997;27;20387;-70
2022/06/15 05:29:22;;;;;;;8.98;5.25;;;12.70;99.90;;;;;;5124873;27;20037;-71
2022/06/15 05:31:48;;;;;;;11.48;6.00;;;12.70;99.90;;;;;;5125059;27;20406;-69
2022/06/15 05:34:14;;;;;;;;;;;12.90;99.90;;;;;;5128064;27;20041;-73
2022/06/15 05:36:43;;;;;;;9.15;5.53;;;12.90;99.90;;;;;;5144825;27;19926;-72
2022/06/15 05:39:09;;;;;;;7.80;5.10;;;13.00;99.90;;;;;;5126342;27;20070;-73
2022/06/15 05:41:34;;;;;;;;;;;13.10;99.90;;;;;;5145625;27;20482;-71
2022/06/15 05:44:04;;;;;;;8.13;5.22;;;13.20;99.90;;;;;;5126425;27;20429;-70
2022/06/15 05:46:34;;;;;;;7.20;4.57;;;13.30;99.90;;;;;;5128036;27;20031;-70
2022/06/15 05:49:02;;;;;;;7.93;4.88;;;13.30;99.90;;;;;;5126522;27;20112;-71
2022/06/15 05:51:28;;;;;;;8.18;5.20;;;13.40;99.90;;;;;;5124614;27;20047;-70
2022/06/15 05:53:54;;;;;;;8.95;4.60;;;13.50;99.90;;;;;;5124296;27;20034;-70
2022/06/15 05:56:20;;;;;;;;;;;13.60;99.90;;;;;;5143426;27;20039;-71
2022/06/15 05:58:49;;;;;;;7.93;4.90;;;13.70;99.90;;;;;;5143170;27;19929;-70
2022/06/15 06:01:26;;;;;;;7.30;4.20;;;13.80;99.90;;;;;;5128322;27;20045;-72
2022/06/15 06:03:52;;;;;;;6.85;4.28;;;13.90;99.90;;;;;;5144636;27;20405;-70
2022/06/15 06:06:18;;;;;;;7.35;4.13;;;14.00;99.90;;;;;;5147263;27;20113;-71
2022/06/15 06:08:43;;;;;;;;;;;15.10;99.90;;;;;;5125089;27;20046;-69
2022/06/15 06:11:09;;;;;;;7.53;3.85;;;14.20;99.90;;;;;;5129786;27;19919;-69
2022/06/15 06:13:38;;;;;;;7.22;4.07;;;14.30;99.90;;;;;;5124013;27;20066;-69
2022/06/15 06:16:04;;;;;;;7.55;4.43;;;14.40;99.90;;;;;;5144304;27;20071;-69
2022/06/15 06:18:29;;;;;;;;;;;14.50;99.90;;;;;;5127226;27;20534;-70
2022/06/15 06:20:55;;;;;;;7.57;4.07;;;14.70;99.90;;;;;;5143604;27;19926;-69
2022/06/15 06:23:20;;;;;;;;;;;14.80;99.90;;;;;;5130600;27;20042;-69
2022/06/15 06:25:50;;;;;;;7.05;4.28;;;15.00;99.90;;;;;;5124578;27;20439;-70
2022/06/15 06:28:35;;;;;;;7.15;3.80;;;15.10;99.90;;;;;;5126729;27;20046;-69
2022/06/15 06:31:03;;;;;;;10.23;5.10;;;15.20;99.90;;;;;;5129321;27;20031;-69
2022/06/15 06:33:32;;;;;;;7.30;4.57;;;15.20;99.90;;;;;;5142211;27;20046;-68
2022/06/15 06:36:01;;;;;;;7.28;4.40;;;15.40;99.90;;;;;;5126204;27;20047;-70
2022/06/15 06:38:27;;;;;;;7.78;4.25;;;15.40;99.90;;;;;;5126247;27;20034;-69
2022/06/15 06:40:55;;;;;;;5.65;3.97;;;15.50;99.90;;;;;;5147655;27;20080;-70
2022/06/15 06:43:21;;;;;;;9.45;4.20;;;15.60;99.90;;;;;;5125650;27;20030;-69
2022/06/15 06:45:47;;;;;;;7.47;3.95;;;15.60;99.90;;;;;;5124853;27;20045;-69
2022/06/15 06:48:13;;;;;;;6.82;4.05;;;15.70;99.90;;;;;;5126036;27;20864;-70
2022/06/15 06:50:40;;;;;;;7.28;3.80;;;15.70;99.90;;;;;;5124176;27;20414;-70
2022/06/15 06:53:10;;;;;;;7.20;4.38;;;15.70;99.90;;;;;;5123489;27;20027;-69
2022/06/15 06:55:36;;;;;;;6.32;4.35;;;15.80;99.90;;;;;;5122035;27;20130;-69
2022/06/15 06:58:03;;;;;;;9.27;4.60;;;15.80;99.90;;;;;;5143705;27;20160;-69
2022/06/15 07:00:31;;;;;;;6.38;3.75;;;15.80;99.90;;;;;;5124256;27;20047;-69
2022/06/15 07:02:59;;;;;;;6.15;3.97;;;15.90;99.90;;;;;;5141184;27;20118;-69
2022/06/15 07:05:25;;;;;;;7.95;3.97;;;16.00;99.90;;;;;;5126138;27;20070;-69
2022/06/15 07:07:50;;;;;;;7.85;4.50;;;16.20;99.90;;;;;;5123946;27;20114;-70
2022/06/15 07:10:16;;;;;;;6.45;3.90;;;16.30;99.90;;;;;;5145204;27;20045;-69
2022/06/15 07:12:42;;;;;;;11.02;5.57;;;16.40;99.90;;;;;;5143367;27;20382;-70
2022/06/15 07:15:12;;;;;;;11.15;5.65;;;16.60;99.90;;;;;;5125984;27;20050;-70
2022/06/15 07:17:38;;;;;;;9.57;6.18;;;16.80;99.90;;;;;;5123230;27;20054;-69
2022/06/15 07:20:05;;;;;;;12.00;6.88;;;17.20;99.90;;;;;;5126358;27;20074;-70
2022/06/15 07:22:31;;;;;;;9.55;6.00;;;17.80;99.90;;;;;;5126206;27;20343;-70
2022/06/15 07:24:57;;;;;;;8.85;5.85;;;18.60;99.90;;;;;;5125952;27;20045;-70
2022/06/15 07:27:23;;;;;;;9.77;6.07;;;19.40;99.90;;;;;;5123943;27;20031;-70
2022/06/15 07:29:50;;;;;;;9.95;5.38;;;20.10;99.90;;;;;;5124560;27;20043;-70
2022/06/15 07:32:18;;;;;;;8.88;4.95;;;20.80;99.90;;;;;;5124442;27;20071;-70
2022/06/15 07:34:44;;;;;;;8.18;4.78;;;21.30;99.90;;;;;;5124752;27;20081;-70
2022/06/15 07:37:10;;;;;;;8.40;4.65;;;21.50;99.90;;;;;;5142740;27;20390;-69
2022/06/15 07:39:37;;;;;;;7.53;4.57;;;22.00;99.90;;;;;;5146525;27;20038;-68
2022/06/15 07:42:08;;;;;;;8.52;4.47;;;22.30;99.90;;;;;;5141122;27;20438;-68
2022/06/15 07:44:35;;;;;;;8.45;3.47;;;22.60;99.90;;;;;;5128911;27;20038;-68
2022/06/15 07:49:55;;;;;;;6.55;3.70;;;23.00;99.10;;;;;;5124160;27;20035;-68
2022/06/15 07:52:33;;;;;;;7.57;3.47;;;23.00;99.90;;;;;;5123893;27;20079;-68
2022/06/15 07:54:59;;;;;;;5.88;3.42;;;23.30;99.90;;;;;;5141092;27;20057;-68
2022/06/15 07:57:25;;;;;;;8.27;4.43;;;23.20;99.90;;;;;;5125506;27;20477;-68
2022/06/15 07:59:51;;;;;;;7.22;4.38;;;23.20;99.90;;;;;;5143461;27;20046;-68
2022/06/15 08:02:17;;;;;;;5.35;3.45;;;23.80;99.90;;;;;;5143985;27;20034;-68
2022/06/15 08:04:43;;;;;;;5.20;3.13;;;23.90;99.90;;;;;;5125989;27;20118;-69
2022/06/15 08:07:12;;;;;;;5.32;2.33;;;24.30;99.90;;;;;;5141824;27;20049;-69
2022/06/15 08:09:39;;;;;;;6.15;2.30;;;24.60;97.10;;;;;;5126024;27;20053;-69
2022/06/15 08:12:12;;;;;;;5.35;3.33;;;25.00;97.90;;;;;;5119688;27;20043;-69
2022/06/15 08:14:52;;;;;;;8.48;3.22;;;25.20;97.60;;;;;;5125411;27;20547;-69
2022/06/15 08:17:27;;;;;;;6.55;3.65;;;25.30;96.80;;;;;;5124205;27;20502;-69
2022/06/15 08:20:13;;;;;;;5.97;3.22;;;25.40;97.50;;;;;;5121614;27;20047;-69
2022/06/15 08:22:41;;;;;;;6.10;2.90;;;25.80;96.50;;;;;;5141827;27;20496;-69
2022/06/15 08:25:10;;;;;;;6.15;3.15;;;25.70;97.20;;;;;;5142555;27;20035;-69
2022/06/15 08:27:36;;;;;;;5.22;3.17;;;24.90;97.10;;;;;;5125933;27;20046;-68
2022/06/15 08:30:06;;;;;;;5.97;2.75;;;24.80;96.80;;;;;;5122060;27;20493;-69
2022/06/15 08:32:32;;;;;;;6.55;2.83;;;25.00;97.20;;;;;;5121926;27;20078;-69
2022/06/15 08:34:58;;;;;;;5.28;2.50;;;25.50;97.10;;;;;;5124365;27;20105;-68
2022/06/15 08:37:23;;;;;;;3.92;2.35;;;26.10;96.20;;;;;;5122850;27;20034;-68
2022/06/15 08:39:49;;;;;;;5.35;2.95;;;26.20;96.00;;;;;;5135561;27;20491;-68
2022/06/15 08:42:33;;;;;;;5.70;2.45;;;25.50;95.10;;;;;;5124831;27;20041;-68
2022/06/15 08:45:06;;;;;;;4.40;2.30;;;24.70;95.10;;;;;;5146406;27;20053;-68
2022/06/15 08:48:00;;;;;;;6.10;2.50;;;24.10;96.00;;;;;;5144247;27;20031;-69
2022/06/15 08:50:37;;;;;;;3.38;2.13;;;24.50;96.60;;;;;;5145099;27;20490;-68
2022/06/15 08:53:15;;;;;;;6.30;2.15;;;25.40;96.20;;;;;;5127661;27;20041;-68
2022/06/15 08:55:56;;;;;;;4.50;2.20;;;26.10;93.50;;;;;;5124474;27;20042;-68
2022/06/15 08:58:46;;;;;;;5.65;2.45;;;26.20;94.40;;;;;;5142892;27;20482;-69
2022/06/15 09:01:27;;;;;;;4.07;2.33;;;26.60;93.80;;;;;;5141543;27;20460;-69
2022/06/15 09:04:02;;;;;;;5.63;2.40;;;26.90;93.70;;;;;;5126583;27;20642;-69
2022/06/15 09:06:30;;;;;;;4.30;2.33;;;27.20;93.60;;;;;;5128617;27;20149;-69
2022/06/15 09:09:08;;;;;;;5.35;2.50;;;27.20;93.60;;;;;;5131056;27;20038;-69
2022/06/15 09:14:59;;;;;;;4.00;1.95;;;27.30;93.70;;;;;;5142211;27;20043;-71
2022/06/15 09:17:27;;;;;;;4.47;1.90;;;27.60;93.00;;;;;;5130932;27;20034;-71
2022/06/15 09:20:05;;;;;;;7.05;2.15;;;27.40;91.90;;;;;;5130010;27;20054;-71
2022/06/15 09:22:52;;;;;;;4.13;2.05;;;26.80;91.60;;;;;;5125895;27;20883;-71
2022/06/15 09:25:36;;;;;;;4.43;1.80;;;26.50;91.90;;;;;;5127177;27;20081;-72
2022/06/15 09:28:07;;;;;;;5.03;2.10;;;26.40;91.80;;;;;;5128027;27;20043;-71
2022/06/15 09:30:38;;;;;;;5.00;2.03;;;26.70;92.40;;;;;;5144173;27;20035;-71
2022/06/15 09:33:08;;;;;;;4.57;2.10;;;27.00;93.00;;;;;;5129222;27;20558;-71
2022/06/15 09:36:02;;;;;;;5.75;2.00;;;27.10;91.80;;;;;;5129717;27;20430;-71
2022/06/15 09:38:31;;;;;;;4.45;1.90;;;26.60;92.90;;;;;;5125843;27;20497;-71
2022/06/15 09:41:09;;;;;;;3.83;1.98;;;26.70;92.80;;;;;;5128961;27;20042;-71
2022/06/15 09:43:59;;;;;;;4.15;1.77;;;26.80;92.00;;;;;;5126665;27;20071;-71
2022/06/15 09:46:40;;;;;;;5.15;2.10;;;26.80;91.90;;;;;;5129870;27;20065;-71
2022/06/15 09:49:21;;;;;;;3.75;2.00;;;26.90;92.30;;;;;;5120382;27;20497;-71
2022/06/15 09:52:05;;;;;;;4.53;2.08;;;26.50;92.10;;;;;;5120191;27;20039;-71
2022/06/15 09:54:52;;;;;;;4.93;1.97;;;26.00;93.00;;;;;;5090918;22;1187068;-70
2022/06/15 09:57:19;;;;;;;5.43;2.20;;;26.20;92.70;;;;;;5060259;28;20056;-71
2022/06/15 09:59:44;;;;;;;4.10;2.35;;;26.10;93.10;;;;;;5061618;28;20116;-70
2022/06/15 10:02:31;;;;;;;4.38;1.95;;;26.40;93.10;;;;;;5060867;28;20441;-71
2022/06/15 10:04:59;;;;;;;3.38;2.20;;;26.80;92.10;;;;;;5058809;28;20557;-71
2022/06/15 10:07:33;;;;;;;4.28;2.05;;;27.30;92.60;;;;;;5062368;28;20045;-71
2022/06/15 10:12:56;;;;;;;4.10;2.53;;;27.40;92.30;;;;;;5106756;22;20399;-70
2022/06/15 10:15:56;;;;;;;5.20;2.22;;;26.60;91.40;;;;;;5078805;28;20044;-70
2022/06/15 10:18:43;;;;;;;6.05;2.42;;;25.90;91.40;;;;;;5063057;28;20063;-76
2022/06/15 10:21:14;;;;;;;5.22;2.00;;;25.40;92.10;;;;;;5078094;28;20036;-76
2022/06/15 10:24:01;;;;;;;5.72;2.10;;;25.60;92.30;;;;;;5083590;28;20044;-76
2022/06/15 10:26:32;;;;;;;4.40;2.53;;;25.40;91.70;;;;;;5080114;28;20504;-76
2022/06/15 10:29:18;;;;;;;6.70;2.95;;;25.10;92.80;;;;;;5075723;28;20090;-76
2022/06/15 10:32:20;;;;;;;4.90;2.50;;;24.90;93.00;;;;;;5079239;28;20036;-76
2022/06/15 10:34:46;;;;;;;5.07;2.58;;;25.30;93.10;;;;;;5041016;28;20052;-77
2022/06/15 10:37:32;;;;;;;6.35;2.60;;;25.60;93.70;;;;;;5062291;28;20049;-75
2022/06/15 10:40:17;;;;;;;4.70;2.70;;;26.00;93.80;;;;;;5075375;28;20404;-76
2022/06/15 10:42:50;;;;;;;5.38;2.75;;;26.00;92.70;;;;;;5077313;28;20047;-77
2022/06/15 10:45:34;;;;;;;3.63;2.40;;;26.40;93.30;;;;;;5081251;28;20048;-77
2022/06/15 10:48:11;;;;;;;5.18;2.90;;;26.70;92.10;;;;;;5070620;28;20060;-77
2022/06/15 10:51:06;;;;;;;5.18;2.70;;;26.40;91.40;;;;;;5078983;28;20381;-76
2022/06/15 10:53:49;;;;;;;6.68;2.80;;;26.10;92.60;;;;;;5074579;28;20079;-76
2022/06/15 11:02:37;;;;;;;6.45;2.75;;;26.40;92.60;;;;;;5074092;28;20745;-77
2022/06/15 11:05:08;;;;;;;4.65;2.65;;;26.70;91.50;;;;;;5080336;28;20044;-76
2022/06/15 11:07:44;;;;;;;5.43;2.58;;;27.10;92.50;;;;;;5080146;28;20119;-76
2022/06/15 11:10:25;;;;;;;4.28;2.88;;;27.30;90.90;;;;;;5077597;28;20407;-76
2022/06/15 11:12:56;;;;;;;5.40;2.88;;;27.40;90.00;;;;;;5057894;28;20087;-75
2022/06/15 11:18:44;;;;;;;4.85;2.72;;;27.90;90.60;;;;;;5076880;28;20054;-76
2022/06/15 11:21:18;;;;;;;4.88;2.85;;;27.70;90.40;;;;;;5073787;28;20044;-75
2022/06/15 11:24:07;;;;;;;3.67;2.38;;;28.00;90.10;;;;;;5079013;28;20083;-77
2022/06/15 11:26:57;;;;;;;4.53;2.53;;;28.20;90.20;;;;;;5074284;28;20437;-78
2022/06/15 11:29:36;;;;;;;4.97;2.78;;;27.80;88.10;;;;;;5075082;28;20054;-76
2022/06/15 11:32:39;;;;;;;5.88;2.90;;;27.30;90.30;;;;;;5081673;28;20116;-76
2022/06/15 11:35:18;;;;;;;5.50;2.70;;;27.50;92.10;;;;;;5079544;28;20045;-77
2022/06/15 11:37:59;;;;;;;7.60;3.45;;;27.50;90.30;;;;;;5079298;28;20075;-76
2022/06/15 11:40:57;;;;;;;6.68;3.35;;;27.70;90.20;;;;;;5074152;28;20048;-77
2022/06/15 11:43:43;;;;;;;4.95;2.90;;;27.90;90.30;;;;;;5069488;28;20574;-76
2022/06/15 11:46:18;;;;;;;4.55;3.20;;;28.00;87.60;;;;;;5071603;28;20040;-78
2022/06/15 11:49:37;;;;;;;7.20;2.88;;;28.00;89.00;;;;;;5081442;28;20047;-76
2022/06/15 12:08:06;;;;;;;5.28;2.60;;;26.20;89.10;;;;;;5074737;28;20466;-77
2022/06/15 12:10:39;;;;;;;5.30;2.63;;;25.70;90.10;;;;;;5035892;28;20052;-77
2022/06/15 12:13:19;;;;;;;6.18;3.50;;;25.80;90.90;;;;;;5075528;28;20040;-77
2022/06/15 12:15:48;;;;;;;5.13;2.65;;;26.00;90.20;;;;;;5069126;28;20491;-77
2022/06/15 12:18:37;;;;;;;5.70;2.85;;;26.40;90.60;;;;;;5074757;28;20622;-78
2022/06/15 12:21:26;;;;;;;5.55;2.85;;;26.50;86.70;;;;;;5072633;28;20403;-76
2022/06/15 12:24:15;;;;;;;5.47;3.20;;;26.60;88.80;;;;;;5070892;28;20062;-78
2022/06/15 12:26:41;;;;;;;5.22;2.70;;;26.60;89.10;;;;;;5071994;28;20039;-79
2022/06/15 12:29:26;;;;;;;5.00;2.97;;;26.60;89.10;;;;;;5076743;28;20040;-76
2022/06/15 12:35:35;;;;;;;5.07;2.60;;;26.60;85.10;;;;;;5067801;28;20049;-77
2022/06/15 12:38:25;;;;;;;3.88;2.50;;;26.60;87.20;;;;;;5072501;28;20048;-77
2022/06/15 12:44:21;;;;;;;4.88;2.70;;;26.40;88.70;;;;;;5069429;28;20040;-77
2022/06/15 12:46:49;;;;;;;3.80;2.40;;;26.20;84.40;;;;;;5070241;28;20051;-79
2022/06/15 12:49:59;;;;;;;4.20;2.40;;;25.90;86.20;;;;;;5071104;28;20053;-77
2022/06/15 12:52:25;;;;;;;4.80;2.50;;;26.20;90.00;;;;;;5060061;28;20057;-79
2022/06/15 12:55:23;;;;;;;4.78;2.63;;;26.20;87.60;;;;;;5070301;28;20055;-78
2022/06/15 12:58:17;;;;;;;5.18;2.45;;;26.40;86.40;;;;;;5076139;28;20051;-79
2022/06/15 13:00:49;;;;;;;4.68;2.35;;;26.40;88.30;;;;;;5074113;28;20072;-78
2022/06/15 13:03:36;;;;;;;6.18;2.40;;;26.10;85.70;;;;;;5066400;28;20044;-77
2022/06/15 13:06:42;;;;;;;5.40;2.15;;;26.10;86.80;;;;;;5071818;28;20507;-78
2022/06/15 13:09:18;;;;;;;6.25;2.20;;;25.80;86.60;;;;;;4998931;28;20049;-74
2022/06/15 13:12:02;;;;;;;29.95;5.50;;;25.80;86.90;;;;;;5067930;28;20154;-74
2022/06/15 13:14:51;;;;;;;3.50;2.50;;;25.90;86.00;;;;;;5077326;28;20488;-73
2022/06/15 13:17:22;;;;;;;4.22;2.45;;;26.00;87.20;;;;;;5076787;28;20048;-75
2022/06/15 13:19:51;;;;;;;19.38;5.35;;;26.00;84.10;;;;;;5076671;28;20047;-75
2022/06/15 13:22:23;;;;;;;5.45;2.50;;;26.20;87.60;;;;;;5075228;28;20475;-73
2022/06/15 13:25:06;;;;;;;5.43;2.70;;;26.20;84.80;;;;;;5071076;28;20127;-73
2022/06/15 13:27:35;;;;;;;4.07;2.47;;;26.20;86.40;;;;;;5073437;28;20059;-73
2022/06/15 13:30:17;;;;;;;61.60;9.63;;;26.20;86.80;;;;;;5065637;28;20131;-75
2022/06/15 13:32:52;;;;;;;4.93;2.42;;;26.10;87.70;;;;;;5073669;28;20106;-74
2022/06/15 13:35:40;;;;;;;3.97;2.40;;;25.80;86.00;;;;;;5071741;28;20044;-74
2022/06/15 13:38:27;;;;;;;3.92;2.22;;;25.90;87.50;;;;;;5072370;28;20051;-75
2022/06/15 13:40:53;;;;;;;4.55;2.45;;;25.90;85.20;;;;;;5076153;28;20395;-78
2022/06/15 13:43:49;;;;;;;4.32;2.03;;;25.80;85.70;;;;;;5066119;28;21344;-73
2022/06/15 13:46:25;;;;;;;6.33;2.67;;;25.60;86.50;;;;;;5030204;28;20052;-72
2022/06/15 13:48:59;;;;;;;3.70;2.08;;;25.60;85.50;;;;;;5072087;28;20105;-72
2022/06/15 13:51:30;;;;;;;3.75;2.17;;;25.50;86.10;;;;;;5073232;28;20032;-76
2022/06/15 13:54:10;;;;;;;4.05;1.92;;;25.60;86.20;;;;;;5070576;28;20046;-75
2022/06/15 13:57:00;;;;;;;4.28;2.20;;;25.80;86.10;;;;;;5075328;28;20055;-76
2022/06/15 13:59:50;;;;;;;4.82;2.20;;;25.90;87.90;;;;;;5062479;28;20295;-74
2022/06/15 14:02:41;;;;;;;4.38;2.50;;;25.80;89.40;;;;;;5071478;28;20048;-73
2022/06/15 14:06:00;;;;;;;5.18;2.38;;;25.70;87.20;;;;;;5067447;28;20052;-72
2022/06/15 14:08:37;;;;;;;5.95;2.70;;;25.80;86.00;;;;;;5075416;28;20052;-71
2022/06/15 14:11:36;;;;;;;4.00;2.00;;;25.60;84.40;;;;;;5072191;28;20506;-73